Latest Coastal Weather Observations for Barrow Island

IDW60701

Issued at 7:53 pm WST Tuesday 17 October 2017 (issued every 10 minutes, with the page automatically refreshed every 10 minutes)

About coastal observations | Map of coastal stations | Coastal observations for WA | Marine services | Other Formats
Station Details ID: 005094 Name: BARROW ISLAND AIRPORT Lat: -20.87 Lon: 115.41 Height: 6.4 m
Data from the previous 72 hours. | See also: Recent months at Barrow Island
Date/Time
WST
Temp
°C
Wind Pressure Rain since
9am
mm
Weather Cloud Vis
km
Sea
Height
m
Swell
Dir  Spd
kts
Gust
kts
hPa Trend Height
m
Period
s
Dir
17/07:30pm 22.0 WSW 22 27 1011.8 - 0.0 - - - - - - -
17/07:00pm 22.0 WSW 22 27 1011.5 - 0.0 - - - - - - -
17/06:30pm 22.0 WSW 21 25 1011.0 - 0.0 - - - - - - -
17/06:00pm 22.5 WSW 23 29 1010.8 - 0.0 - - - - - - -
17/05:30pm 23.1 WSW 23 30 1010.5 - 0.0 - - - - - - -
17/05:00pm 23.6 WSW 25 30 1010.3 - 0.0 - - - - - - -
17/04:30pm 23.8 WSW 25 30 1010.2 - 0.0 - - - - - - -
17/04:00pm 24.3 WSW 24 28 1010.2 - 0.0 - - - - - - -
17/03:30pm 24.9 WSW 23 28 1010.3 - 0.0 - - - - - - -
17/03:00pm 24.8 WSW 22 27 1010.4 - 0.0 - - - - - - -
17/02:30pm 24.3 WSW 22 27 1010.6 - 0.0 - - - - - - -
17/02:00pm 24.3 SW 22 27 1010.8 - 0.0 - - - - - - -
17/01:30pm 24.1 SW 22 26 1011.2 - 0.0 - - - - - - -
17/01:00pm 23.9 SW 22 25 1011.6 - 0.0 - - - - - - -
17/12:30pm 23.2 SW 20 24 1011.9 - 0.0 - - - - - - -
17/12:00pm 22.8 SSW 21 24 1012.2 - 0.0 - - - - - - -
17/11:30am 22.4 SSW 22 26 1012.4 - 0.0 - - - - - - -
17/11:00am 22.3 SSW 22 27 1012.8 - 0.0 - - - - - - -
17/10:30am 21.5 SSW 23 28 1013.0 - 0.0 - - - - - - -
17/10:00am 21.0 SSW 24 29 1013.3 - 0.0 - - - - - - -
17/09:30am 20.5 SSW 24 28 1013.6 - 0.0 - - - - - - -
17/09:00am 20.5 SSW 24 30 1013.6 - 0.0 - - - - - - -
17/08:30am 20.3 SSW 24 29 1013.7 - 0.0 - - - - - - -
17/08:00am 19.9 S 26 31 1013.3 - 0.0 - - - - - - -
17/07:30am 19.7 SSW 27 31 1012.7 - 0.0 - - - - - - -
17/07:00am 19.5 S 26 31 1012.6 - 0.0 - - - - - - -
17/06:30am 19.2 SSW 26 30 1012.4 - 0.0 - - - - - - -
17/06:00am 19.0 SSW 26 31 1012.0 - 0.0 - - - - - - -
17/05:30am 18.9 SSW 25 31 1011.7 - 0.0 - - - - - - -
17/05:00am 19.2 SSW 26 30 1011.3 - 0.0 - - - - - - -
17/04:30am 19.5 SSW 25 29 1011.1 - 0.0 - - - - - - -
17/04:00am 19.6 SSW 25 29 1010.8 - 0.0 - - - - - - -
17/03:30am 19.9 SSW 24 29 1010.6 - 0.0 - - - - - - -
17/03:00am 20.1 SSW 24 28 1010.5 - 0.0 - - - - - - -
17/02:30am 20.6 SSW 25 29 1010.4 - 0.0 - - - - - - -
17/02:00am 20.9 SSW 25 29 1010.4 - 0.0 - - - - - - -
17/01:30am 21.2 SSW 26 30 1010.5 - 0.0 - - - - - - -
17/01:00am 21.3 SSW 26 30 1010.7 - 0.0 - - - - - - -
17/12:30am 21.7 SSW 26 31 1011.0 - 0.0 - - - - - - -
17/12:00am 21.9 SSW 26 31 1011.1 - 0.0 - - - - - - -
 
Date/Time
WST
Temp
°C
Wind Pressure Rain since
9am
mm
Weather Cloud Vis
km
Sea
Height
m
Swell
Dir  Spd
kts
Gust
kts
hPa Trend Height
m
Period
s
Dir
16/11:30pm 22.1 SSW 25 29 1011.3 - 0.0 - - - - - - -
16/11:00pm 22.4 SW 26 33 1011.5 - 0.0 - - - - - - -
16/10:30pm 22.7 SSW 25 30 1011.4 - 0.0 - - - - - - -
16/10:00pm 22.8 SW 25 31 1011.5 - 0.0 - - - - - - -
16/09:30pm 23.0 SW 26 31 1011.6 - 0.0 - - - - - - -
16/09:00pm 23.3 SW 25 29 1011.3 - 0.0 - - - - - - -
16/08:30pm 23.6 SW 26 31 1011.0 - 0.0 - - - - - - -
16/08:00pm 23.1 WSW 20 26 1011.1 - 0.0 - - - - - - -
16/07:30pm 23.1 WSW 20 25 1011.0 - 0.0 - - - - - - -
16/07:00pm 23.0 WSW 21 25 1010.7 - 0.0 - - - - - - -
16/06:30pm 23.1 WSW 19 23 1010.3 - 0.0 - - - - - - -
16/06:00pm 23.4 WSW 20 25 1010.1 - 0.0 - - - - - - -
16/05:30pm 23.9 WSW 23 27 1009.9 - 0.0 - - - - - - -
16/05:00pm 24.6 WSW 23 28 1009.6 - 0.0 - - - - - - -
16/04:30pm 24.9 WSW 22 28 1009.3 - 0.0 - - - - - - -
16/04:00pm 25.0 WSW 24 28 1009.4 - 0.0 - - - - - - -
16/03:30pm 25.7 WSW 23 29 1009.5 - 0.0 - - - - - - -
16/03:00pm 25.5 WSW 21 27 1009.8 - 0.0 - - - - - - -
16/02:30pm 25.9 WSW 20 25 1010.1 - 0.0 - - - - - - -
16/02:00pm 25.7 WSW 20 26 1010.3 - 0.0 - - - - - - -
16/01:30pm 25.8 SW 21 24 1010.6 - 0.0 - - - - - - -
16/01:00pm 25.7 SW 20 24 1011.0 - 0.0 - - - - - - -
16/12:30pm 25.9 SW 18 21 1011.3 - 0.0 - - - - - - -
16/12:00pm 25.6 SSW 18 22 1011.7 - 0.0 - - - - - - -
16/11:30am 25.1 SSW 17 20 1012.2 - 0.0 - - - - - - -
16/11:00am 25.0 SSW 15 18 1012.8 - 0.0 - - - - - - -
16/10:30am 24.7 SSW 14 17 1012.8 - 0.0 - - - - - - -
16/10:00am 24.1 SSW 14 17 1013.0 - 0.0 - - - - - - -
16/09:30am 24.0 SSW 14 19 1012.9 - 0.0 - - - - - - -
16/09:00am 24.3 SSW 15 18 1012.9 - 0.0 - - - - - - -
16/08:30am 23.9 SSW 14 17 1013.0 - 0.0 - - - - - - -
16/08:00am 23.1 SSW 16 20 1012.9 - 0.0 - - - - - - -
16/07:30am 22.6 SW 16 20 1012.7 - 0.0 - - - - - - -
16/07:00am 22.2 SSW 18 22 1012.4 - 0.0 - - - - - - -
16/06:30am 22.2 SSW 18 21 1012.0 - 0.0 - - - - - - -
16/06:00am 22.0 SSW 18 21 1011.6 - 0.0 - - - - - - -
16/05:30am 22.1 SSW 18 22 1011.2 - 0.0 - - - - - - -
16/05:00am 22.0 SSW 17 19 1010.9 - 0.0 - - - - - - -
16/04:30am 21.8 SW 17 20 1010.5 - 0.0 - - - - - - -
16/04:00am 21.7 SW 16 20 1010.4 - 0.0 - - - - - - -
16/03:30am 21.5 SW 16 20 1010.4 - 0.0 - - - - - - -
16/03:00am 21.4 SW 17 20 1010.3 - 0.0 - - - - - - -
16/02:30am 21.6 SW 17 20 1010.2 - 0.0 - - - - - - -
16/02:00am 21.3 SW 17 21 1010.2 - 0.0 - - - - - - -
16/01:30am 21.3 SW 17 22 1010.2 - 0.0 - - - - - - -
16/01:00am 21.5 WSW 18 21 1010.4 - 0.0 - - - - - - -
16/12:30am 21.6 WSW 17 20 1010.9 - 0.0 - - - - - - -
16/12:00am 21.7 WSW 18 22 1010.9 - 0.0 - - - - - - -
 
Date/Time
WST
Temp
°C
Wind Pressure Rain since
9am
mm
Weather Cloud Vis
km
Sea
Height
m
Swell
Dir  Spd
kts
Gust
kts
hPa Trend Height
m
Period
s
Dir
15/11:30pm 21.8 WSW 17 22 1011.0 - 0.0 - - - - - - -
15/11:00pm 21.9 WSW 19 23 1011.1 - 0.0 - - - - - - -
15/10:30pm 22.0 WSW 17 22 1011.4 - 0.0 - - - - - - -
15/10:00pm 22.0 WSW 16 20 1011.5 - 0.0 - - - - - - -
15/09:30pm 22.0 WSW 15 19 1011.5 - 0.0 - - - - - - -
15/09:00pm 22.2 WSW 15 18 1011.3 - 0.0 - - - - - - -
15/08:30pm 22.2 W 15 20 1010.8 - 0.0 - - - - - - -
15/08:00pm 22.3 WSW 14 17 1010.7 - 0.0 - - - - - - -
15/07:30pm 22.4 WSW 15 19 1010.4 - 0.0 - - - - - - -
15/07:00pm 22.6 WSW 16 19 1009.8 - 0.0 - - - - - - -
15/06:30pm 22.7 WSW 16 21 1009.4 - 0.0 - - - - - - -
15/06:00pm 23.2 WSW 18 23 1009.2 - 0.0 - - - - - - -
15/05:30pm 23.9 WSW 19 23 1008.9 - 0.0 - - - - - - -
15/05:00pm 24.4 WSW 19 23 1008.8 - 0.0 - - - - - - -
15/04:30pm 24.9 WSW 18 22 1008.8 - 0.0 - - - - - - -
15/04:00pm 25.6 WSW 18 21 1008.9 - 0.0 - - - - - - -
15/03:30pm 25.7 WSW 19 23 1009.0 - 0.0 - - - - - - -
15/03:00pm 25.3 WSW 19 22 1009.1 - 0.0 - - - - - - -
15/02:30pm 25.6 WSW 18 24 1009.2 - 0.0 - - - - - - -
15/02:00pm 26.8 WSW 17 22 1009.4 - 0.0 - - - - - - -
15/01:30pm 25.5 WSW 17 22 1009.4 - 0.0 - - - - - - -
15/01:00pm 25.2 WSW 17 22 1009.9 - 0.0 - - - - - - -
15/12:30pm 25.6 WSW 18 22 1010.2 - 0.0 - - - - - - -
15/12:00pm 25.2 SW 18 21 1010.5 - 0.0 - - - - - - -
15/11:30am 24.7 SW 18 22 1010.9 - 0.0 - - - - - - -
15/11:00am 24.8 SW 16 19 1011.2 - 0.0 - - - - - - -
15/10:30am 24.4 SW 15 18 1011.4 - 0.0 - - - - - - -
15/10:00am 24.1 SW 15 19 1011.6 - 0.0 - - - - - - -
15/09:30am 23.9 SW 15 19 1011.5 - 0.0 - - - - - - -
15/09:00am 23.5 SW 14 17 1011.6 - 0.0 - - - - - - -
15/08:30am 23.4 SW 13 15 1011.5 - 0.0 - - - - - - -
15/08:00am 22.6 SW 14 16 1011.3 - 0.0 - - - - - - -
15/07:30am 22.2 SW 14 16 1011.2 - 0.0 - - - - - - -
15/07:00am 21.9 SSW 15 18 1010.9 - 0.0 - - - - - - -
15/06:30am 21.6 SSW 15 17 1010.6 - 0.0 - - - - - - -
15/06:00am 21.3 SSW 17 20 1010.2 - 0.0 - - - - - - -
15/05:30am 21.2 SSW 18 21 1010.0 - 0.0 - - - - - - -
15/05:00am 21.1 SSW 19 22 1009.9 - 0.0 - - - - - - -
15/04:30am 21.2 SSW 19 23 1009.7 - 0.0 - - - - - - -
15/04:00am 21.3 SSW 18 21 1009.6 - 0.0 - - - - - - -
15/03:30am 21.5 SSW 17 20 1009.5 - 0.0 - - - - - - -
15/03:00am 21.6 SSW 18 21 1009.4 - 0.0 - - - - - - -
15/02:30am 21.6 SSW 17 20 1009.1 - 0.0 - - - - - - -
15/02:00am 21.5 SW 18 21 1009.2 - 0.0 - - - - - - -
15/01:30am 21.6 SW 18 21 1009.5 - 0.0 - - - - - - -
15/01:00am 21.7 SW 19 22 1009.8 - 0.0 - - - - - - -
15/12:30am 21.5 SW 17 20 1009.9 - 0.0 - - - - - - -
15/12:00am 21.6 SW 17 20 1010.0 - 0.0 - - - - - - -
 
Date/Time
WST
Temp
°C
Wind Pressure Rain since
9am
mm
Weather Cloud Vis
km
Sea
Height
m
Swell
Dir  Spd
kts
Gust
kts
hPa Trend Height
m
Period
s
Dir
14/11:30pm 21.7 WSW 16 19 1010.4 - 0.0 - - - - - - -
14/11:00pm 21.8 WSW 15 19 1010.5 - 0.0 - - - - - - -
14/10:30pm 21.8 WSW 14 17 1010.8 - 0.0 - - - - - - -
14/10:00pm 21.9 WSW 13 17 1010.9 - 0.0 - - - - - - -
14/09:30pm 22.0 WSW 14 17 1011.1 - 0.0 - - - - - - -
14/09:00pm 22.1 WSW 14 18 1011.1 - 0.0 - - - - - - -
14/08:30pm 22.2 WSW 12 16 1011.3 - 0.0 - - - - - - -
14/08:00pm 22.3 WSW 14 17 1010.9 - 0.0 - - - - - - -

Other Formats:

Comma delimited format used in spreadsheet applications
http://www.bom.gov.au/fwo/IDW60701/IDW60701.95304.axf

JavaScript Object Notation format (JSON) in row-major order
http://www.bom.gov.au/fwo/IDW60701/IDW60701.95304.json